Time,TemperatureF,DewpointF,PressureIn,WindDirection,WindDirectionDegrees,WindSpeedMPH,WindSpeedGustMPH,Humidity,HourlyPrecipIn,Conditions,Clouds,dailyrainin,SoftwareType,DateUTC
2013-12-07 00:00:00,35.8,34.8,30.13,NE,45,0.0,0.7,95,0.08,,,0.51,fowsr,2013-12-07 05:00:00,
2013-12-07 00:05:00,36.0,35.0,30.15,SW,225,0.0,1.6,95,0.07,,,0.51,fowsr,2013-12-07 05:05:00,
2013-12-07 00:10:00,36.0,35.0,30.15,West,270,0.0,0.0,95,0.07,,,0.51,fowsr,2013-12-07 05:10:00,
2013-12-07 00:15:00,36.0,35.0,30.13,NE,45,0.0,0.7,95,0.06,,,0.51,fowsr,2013-12-07 05:15:00,
2013-12-07 00:20:00,36.0,35.0,30.13,North,0,0.0,0.7,95,0.06,,,0.52,fowsr,2013-12-07 05:20:00,
2013-12-07 00:25:00,36.0,35.0,30.14,North,0,0.0,0.0,95,0.05,,,0.52,fowsr,2013-12-07 05:25:00,
2013-12-07 00:30:00,36.0,35.0,30.15,NW,315,0.0,0.0,95,0.05,,,0.52,fowsr,2013-12-07 05:30:00,
2013-12-07 00:35:00,36.0,35.0,30.13,NW,315,0.0,0.0,95,0.05,,,0.53,fowsr,2013-12-07 05:35:00,
2013-12-07 00:40:00,36.0,35.0,30.13,East,90,0.0,0.7,95,0.05,,,0.53,fowsr,2013-12-07 05:40:00,
2013-12-07 00:45:00,35.8,34.8,30.13,West,270,0.0,0.7,95,0.05,,,0.53,fowsr,2013-12-07 05:45:00,
2013-12-07 00:50:00,35.8,34.8,30.12,NE,45,0.0,1.6,95,0.05,,,0.54,fowsr,2013-12-07 05:50:00,
2013-12-07 00:55:00,35.8,34.8,30.10,North,0,0.7,1.6,95,0.05,,,0.54,fowsr,2013-12-07 05:55:00,
2013-12-07 01:00:00,35.8,34.8,30.12,NW,315,0.0,0.0,95,0.04,,,0.54,fowsr,2013-12-07 06:00:00,
2013-12-07 01:05:00,35.8,34.8,30.12,NW,315,0.0,0.0,95,0.04,,,0.54,fowsr,2013-12-07 06:05:00,
2013-12-07 01:10:00,35.8,34.8,30.10,ENE,67,0.0,0.0,95,0.04,,,0.54,fowsr,2013-12-07 06:10:00,
2013-12-07 01:15:00,35.8,34.8,30.12,NE,45,0.0,0.7,95,0.04,,,0.54,fowsr,2013-12-07 06:15:00,
2013-12-07 01:20:00,35.8,34.8,30.12,NE,45,0.0,0.7,95,0.04,,,0.54,fowsr,2013-12-07 06:20:00,
2013-12-07 01:25:00,35.8,34.8,30.13,West,270,0.0,0.0,95,0.04,,,0.54,fowsr,2013-12-07 06:25:00,
2013-12-07 01:30:00,35.8,34.8,30.13,North,0,0.0,0.0,95,0.02,,,0.54,fowsr,2013-12-07 06:30:00,
2013-12-07 01:35:00,35.8,34.8,30.12,NW,315,0.0,1.6,95,0.02,,,0.54,fowsr,2013-12-07 06:35:00,
2013-12-07 01:40:00,35.8,34.8,30.15,NW,315,0.0,0.0,95,0.01,,,0.54,fowsr,2013-12-07 06:40:00,
2013-12-07 01:45:00,35.8,34.8,30.16,North,0,0.0,0.0,95,0.01,,,0.54,fowsr,2013-12-07 06:45:00,
2013-12-07 01:50:00,35.8,34.8,30.17,NE,45,0.0,0.7,95,0.01,,,0.54,fowsr,2013-12-07 06:50:00,
2013-12-07 01:55:00,35.8,34.8,30.17,NE,45,0.0,0.0,95,0.00,,,0.54,fowsr,2013-12-07 06:55:00,
2013-12-07 02:00:00,35.8,34.8,30.20,East,90,0.0,0.0,95,0.01,,,0.56,fowsr,2013-12-07 07:00:00,
2013-12-07 02:05:00,35.8,34.8,30.19,East,90,0.0,0.0,95,0.01,,,0.56,fowsr,2013-12-07 07:05:00,
2013-12-07 02:10:00,35.8,34.8,30.20,West,270,0.0,0.0,95,0.01,,,0.56,fowsr,2013-12-07 07:10:00,
2013-12-07 02:15:00,35.8,34.8,30.19,North,0,0.0,0.0,95,0.02,,,0.57,fowsr,2013-12-07 07:15:00,
2013-12-07 02:20:00,35.6,34.7,30.19,North,0,0.0,0.0,95,0.02,,,0.57,fowsr,2013-12-07 07:20:00,
2013-12-07 02:25:00,35.4,34.7,30.19,North,0,0.0,0.0,96,0.02,,,0.57,fowsr,2013-12-07 07:25:00,
2013-12-07 02:30:00,35.4,34.7,30.19,North,0,0.0,0.0,96,0.02,,,0.57,fowsr,2013-12-07 07:30:00,
2013-12-07 02:35:00,35.2,34.5,30.18,North,0,0.0,0.0,96,0.02,,,0.57,fowsr,2013-12-07 07:35:00,
2013-12-07 02:40:00,35.2,34.5,30.19,NE,45,0.7,1.6,96,0.02,,,0.57,fowsr,2013-12-07 07:40:00,
2013-12-07 02:45:00,35.2,34.5,30.19,North,0,0.0,0.0,96,0.04,,,0.58,fowsr,2013-12-07 07:45:00,
2013-12-07 02:50:00,35.2,34.5,30.20,North,0,0.0,0.7,96,0.04,,,0.58,fowsr,2013-12-07 07:50:00,
2013-12-07 02:55:00,35.2,34.5,30.20,NE,45,0.0,0.0,96,0.04,,,0.58,fowsr,2013-12-07 07:55:00,
2013-12-07 03:00:00,35.1,34.3,30.20,NW,315,0.0,0.7,96,0.04,,,0.58,fowsr,2013-12-07 08:00:00,
2013-12-07 03:05:00,35.1,34.3,30.20,NW,315,0.0,0.7,96,0.04,,,0.58,fowsr,2013-12-07 08:05:00,
2013-12-07 03:10:00,34.9,34.1,30.20,North,0,0.0,0.0,96,0.02,,,0.58,fowsr,2013-12-07 08:10:00,
2013-12-07 03:15:00,34.5,33.8,30.19,NE,45,0.0,0.0,96,0.02,,,0.58,fowsr,2013-12-07 08:15:00,
2013-12-07 03:20:00,34.5,33.8,30.19,North,0,0.0,0.7,96,0.01,,,0.58,fowsr,2013-12-07 08:20:00,
2013-12-07 03:25:00,34.3,33.6,30.19,West,270,2.2,3.1,96,0.01,,,0.58,fowsr,2013-12-07 08:25:00,
2013-12-07 03:30:00,34.3,33.6,30.20,NE,45,3.8,5.4,96,0.01,,,0.58,fowsr,2013-12-07 08:30:00,
2013-12-07 03:35:00,34.3,33.4,30.20,NW,315,0.7,2.2,95,0.01,,,0.58,fowsr,2013-12-07 08:35:00,
2013-12-07 03:40:00,34.3,33.4,30.20,NE,45,0.0,0.7,95,0.01,,,0.58,fowsr,2013-12-07 08:40:00,
2013-12-07 03:45:00,34.3,33.4,30.20,NE,45,1.6,2.2,95,0.01,,,0.58,fowsr,2013-12-07 08:45:00,
2013-12-07 03:50:00,34.3,33.4,30.21,North,0,0.0,1.6,95,0.00,,,0.58,fowsr,2013-12-07 08:50:00,
2013-12-07 03:55:00,34.3,33.4,30.21,West,270,0.0,0.0,95,0.00,,,0.58,fowsr,2013-12-07 08:55:00,
2013-12-07 04:00:00,34.3,33.4,30.21,NE,45,0.0,0.7,95,0.00,,,0.58,fowsr,2013-12-07 09:00:00,
2013-12-07 04:05:00,34.3,33.4,30.22,North,0,0.0,0.0,95,0.00,,,0.58,fowsr,2013-12-07 09:05:00,
2013-12-07 04:10:00,34.3,33.4,30.21,North,0,0.0,0.0,95,0.00,,,0.58,fowsr,2013-12-07 09:10:00,
2013-12-07 04:15:00,34.3,33.4,30.21,West,270,0.0,0.0,95,0.00,,,0.58,fowsr,2013-12-07 09:15:00,
2013-12-07 04:20:00,34.3,33.4,30.21,NE,45,0.0,0.0,95,0.00,,,0.58,fowsr,2013-12-07 09:20:00,
2013-12-07 04:25:00,34.3,33.4,30.21,NE,45,0.0,0.7,95,0.00,,,0.58,fowsr,2013-12-07 09:25:00,
2013-12-07 04:30:00,34.3,33.4,30.21,NW,315,0.0,0.0,95,0.00,,,0.58,fowsr,2013-12-07 09:30:00,
2013-12-07 04:35:00,34.3,33.4,30.21,NW,315,0.0,0.0,95,0.00,,,0.58,fowsr,2013-12-07 09:35:00,
2013-12-07 04:40:00,34.3,33.4,30.21,North,0,0.0,0.0,95,0.00,,,0.58,fowsr,2013-12-07 09:40:00,
2013-12-07 04:45:00,34.3,33.4,30.20,NE,45,0.0,0.0,95,0.00,,,0.58,fowsr,2013-12-07 09:45:00,
2013-12-07 04:50:00,34.2,33.2,30.21,NW,315,0.0,0.0,95,0.00,,,0.58,fowsr,2013-12-07 09:50:00,
2013-12-07 04:55:00,34.2,33.2,30.22,NW,315,0.0,0.0,95,0.00,,,0.58,fowsr,2013-12-07 09:55:00,
2013-12-07 05:00:00,34.0,33.1,30.22,NNW,337,0.7,1.6,95,0.00,,,0.58,fowsr,2013-12-07 10:00:00,
2013-12-07 05:05:00,34.0,33.1,30.22,NNW,337,0.7,1.6,95,0.00,,,0.58,fowsr,2013-12-07 10:05:00,
2013-12-07 05:10:00,34.0,33.1,30.22,NE,45,0.0,0.0,95,0.00,,,0.58,fowsr,2013-12-07 10:10:00,
2013-12-07 05:15:00,33.8,32.7,30.23,North,0,0.0,0.0,94,0.00,,,0.57,fowsr,2013-12-07 10:15:00,
2013-12-07 05:20:00,33.8,32.7,30.23,North,0,0.0,0.0,94,0.00,,,0.57,fowsr,2013-12-07 10:20:00,
2013-12-07 05:25:00,33.8,32.7,30.23,NE,45,0.0,0.0,94,0.00,,,0.56,fowsr,2013-12-07 10:25:00,
2013-12-07 05:30:00,33.8,32.7,30.23,NW,315,0.0,0.0,94,0.00,,,0.56,fowsr,2013-12-07 10:30:00,
2013-12-07 05:35:00,33.8,32.7,30.24,NW,315,0.0,0.0,94,0.00,,,0.56,fowsr,2013-12-07 10:35:00,
2013-12-07 05:40:00,33.8,32.7,30.24,NE,45,0.0,0.0,94,0.00,,,0.56,fowsr,2013-12-07 10:40:00,
2013-12-07 05:45:00,33.8,32.7,30.25,NE,45,0.0,0.0,94,0.00,,,0.56,fowsr,2013-12-07 10:45:00,
2013-12-07 05:50:00,34.0,32.9,30.25,North,0,0.0,0.0,94,0.00,,,0.56,fowsr,2013-12-07 10:50:00,
2013-12-07 05:55:00,33.8,32.7,30.24,NNE,22,0.0,0.0,94,0.00,,,0.56,fowsr,2013-12-07 10:55:00,
2013-12-07 06:00:00,33.8,32.7,30.25,East,90,0.0,0.7,94,0.00,,,0.54,fowsr,2013-12-07 11:00:00,
2013-12-07 06:05:00,33.8,32.7,30.26,NE,45,0.0,0.0,94,0.00,,,0.54,fowsr,2013-12-07 11:05:00,
2013-12-07 06:10:00,33.8,32.7,30.26,NE,45,0.0,0.0,94,0.00,,,0.54,fowsr,2013-12-07 11:10:00,
2013-12-07 06:15:00,33.8,32.7,30.26,SW,225,0.0,0.0,94,0.00,,,0.54,fowsr,2013-12-07 11:15:00,
2013-12-07 06:20:00,33.8,32.7,30.27,South,180,0.0,0.0,94,0.00,,,0.54,fowsr,2013-12-07 11:20:00,
2013-12-07 06:25:00,33.8,32.7,30.26,NNW,337,0.0,0.0,94,0.00,,,0.54,fowsr,2013-12-07 11:25:00,
2013-12-07 06:30:00,33.8,32.7,30.26,NE,45,0.0,0.0,94,0.00,,,0.54,fowsr,2013-12-07 11:30:00,
2013-12-07 06:40:00,33.8,32.7,30.26,NW,315,0.0,0.0,94,0.00,,,0.54,fowsr,2013-12-07 11:40:00,
2013-12-07 06:45:00,33.6,32.7,30.27,NW,315,0.0,0.0,95,0.00,,,0.53,fowsr,2013-12-07 11:45:00,
2013-12-07 06:55:00,33.4,32.5,30.27,SE,135,0.0,0.0,95,0.00,,,0.53,fowsr,2013-12-07 11:55:00,
2013-12-07 07:00:00,33.3,32.3,30.27,SE,135,0.0,0.0,95,0.00,,,0.53,fowsr,2013-12-07 12:00:00,
2013-12-07 07:05:00,33.3,32.3,30.28,SE,135,0.0,0.0,95,0.00,,,0.52,fowsr,2013-12-07 12:05:00,
2013-12-07 07:10:00,33.1,32.2,30.28,East,90,0.0,0.0,95,0.00,,,0.52,fowsr,2013-12-07 12:10:00,
2013-12-07 07:15:00,32.9,32.0,30.28,South,180,0.0,0.0,95,0.00,,,0.52,fowsr,2013-12-07 12:15:00,
2013-12-07 07:20:00,32.9,32.0,30.28,South,180,0.0,0.0,95,0.00,,,0.52,fowsr,2013-12-07 12:20:00,
2013-12-07 07:30:00,32.7,31.8,30.29,SE,135,0.0,0.0,95,0.00,,,0.51,fowsr,2013-12-07 12:30:00,
2013-12-07 07:35:00,32.7,31.8,30.30,NW,315,0.0,0.0,95,0.00,,,0.51,fowsr,2013-12-07 12:35:00,
2013-12-07 07:40:00,32.5,31.6,30.29,SE,135,0.0,0.0,95,0.00,,,0.51,fowsr,2013-12-07 12:40:00,
2013-12-07 07:45:00,32.5,31.6,30.30,SE,135,0.0,0.0,95,0.00,,,0.51,fowsr,2013-12-07 12:45:00,
2013-12-07 07:50:00,32.5,31.6,30.30,SE,135,0.0,0.0,95,0.00,,,0.51,fowsr,2013-12-07 12:50:00,
2013-12-07 07:55:00,32.5,31.6,30.30,SE,135,0.0,0.0,95,0.00,,,0.51,fowsr,2013-12-07 12:55:00,
2013-12-07 08:00:00,32.7,31.8,30.30,NE,45,0.0,0.0,95,0.00,,,0.51,fowsr,2013-12-07 13:00:00,
2013-12-07 08:05:00,32.7,31.8,30.31,SW,225,0.0,0.0,95,0.00,,,0.50,fowsr,2013-12-07 13:05:00,
2013-12-07 08:10:00,32.9,32.0,30.31,NW,315,0.0,0.0,95,0.00,,,0.50,fowsr,2013-12-07 13:10:00,
2013-12-07 08:15:00,33.1,32.2,30.31,West,270,0.0,0.0,95,0.00,,,0.50,fowsr,2013-12-07 13:15:00,
2013-12-07 08:20:00,33.3,32.3,30.31,SW,225,0.0,0.7,95,0.00,,,0.50,fowsr,2013-12-07 13:20:00,
2013-12-07 08:25:00,33.4,32.5,30.32,NW,315,0.0,0.0,95,0.00,,,0.50,fowsr,2013-12-07 13:25:00,
2013-12-07 08:30:00,33.6,32.7,30.32,West,270,0.0,0.0,95,0.00,,,0.50,fowsr,2013-12-07 13:30:00,
2013-12-07 08:35:00,33.8,32.9,30.32,SW,225,0.0,0.0,95,0.00,,,0.48,fowsr,2013-12-07 13:35:00,
2013-12-07 08:40:00,34.0,33.1,30.33,SW,225,0.0,0.0,95,0.00,,,0.48,fowsr,2013-12-07 13:40:00,
2013-12-07 08:45:00,34.0,33.1,30.33,North,0,0.0,0.0,95,0.00,,,0.48,fowsr,2013-12-07 13:45:00,
2013-12-07 08:50:00,34.2,33.2,30.33,East,90,0.0,0.0,95,0.00,,,0.48,fowsr,2013-12-07 13:50:00,
2013-12-07 08:55:00,34.2,33.2,30.33,East,90,0.0,0.0,95,0.00,,,0.48,fowsr,2013-12-07 13:55:00,
2013-12-07 09:00:00,34.3,33.4,30.34,West,270,0.0,0.0,95,0.00,,,0.48,fowsr,2013-12-07 14:00:00,
2013-12-07 09:05:00,34.3,33.4,30.34,West,270,0.0,0.0,95,0.00,,,0.48,fowsr,2013-12-07 14:05:00,
2013-12-07 09:10:00,34.9,34.0,30.34,SSE,157,0.0,0.0,95,0.00,,,0.48,fowsr,2013-12-07 14:10:00,
2013-12-07 09:20:00,34.9,33.8,30.35,NW,315,0.0,0.0,94,0.00,,,0.46,fowsr,2013-12-07 14:20:00,
2013-12-07 09:25:00,35.1,33.8,30.35,NNW,337,0.0,0.0,93,0.00,,,0.46,fowsr,2013-12-07 14:25:00,
2013-12-07 09:35:00,35.4,33.9,30.36,South,180,0.0,0.0,92,0.00,,,0.46,fowsr,2013-12-07 14:35:00,
2013-12-07 09:45:00,35.6,33.3,30.35,North,0,0.0,0.0,88,0.00,,,0.46,fowsr,2013-12-07 14:45:00,
2013-12-07 09:50:00,35.8,33.1,30.35,North,0,0.0,0.0,86,0.00,,,0.46,fowsr,2013-12-07 14:50:00,
2013-12-07 09:55:00,36.0,33.0,30.35,NNW,337,0.0,0.0,85,0.00,,,0.46,fowsr,2013-12-07 14:55:00,
2013-12-07 10:00:00,36.0,32.6,30.35,NE,45,0.0,0.0,83,0.00,,,0.46,fowsr,2013-12-07 15:00:00,
2013-12-07 10:05:00,36.0,32.4,30.35,NE,45,0.0,0.0,82,0.00,,,0.46,fowsr,2013-12-07 15:05:00,
2013-12-07 10:10:00,36.1,32.3,30.35,North,0,0.0,0.0,81,0.00,,,0.46,fowsr,2013-12-07 15:10:00,
2013-12-07 10:15:00,36.3,32.1,30.35,NW,315,0.0,0.0,79,0.00,,,0.45,fowsr,2013-12-07 15:15:00,
2013-12-07 10:20:00,36.5,31.6,30.35,NW,315,0.0,0.0,76,0.00,,,0.44,fowsr,2013-12-07 15:20:00,
2013-12-07 10:25:00,36.7,31.7,30.36,North,0,0.0,0.0,76,0.00,,,0.44,fowsr,2013-12-07 15:25:00,
2013-12-07 10:30:00,36.9,31.7,30.35,North,0,0.0,0.0,75,0.00,,,0.44,fowsr,2013-12-07 15:30:00,
2013-12-07 10:35:00,36.9,31.2,30.36,NW,315,0.0,0.0,73,0.00,,,0.44,fowsr,2013-12-07 15:35:00,
2013-12-07 10:40:00,37.0,30.9,30.36,North,0,0.0,0.0,71,0.00,,,0.44,fowsr,2013-12-07 15:40:00,
2013-12-07 10:45:00,37.2,30.6,30.35,North,0,0.0,0.0,69,0.00,,,0.43,fowsr,2013-12-07 15:45:00,
2013-12-07 10:50:00,37.2,30.3,30.35,East,90,0.0,0.0,68,0.00,,,0.43,fowsr,2013-12-07 15:50:00,
2013-12-07 10:55:00,37.4,31.5,30.35,WSW,247,0.0,0.0,72,0.00,,,0.43,fowsr,2013-12-07 15:55:00,
2013-12-07 11:00:00,37.6,31.6,30.35,NW,315,0.0,0.0,72,0.00,,,0.43,fowsr,2013-12-07 16:00:00,
2013-12-07 11:10:00,38.1,31.7,30.36,East,90,0.0,0.0,70,0.00,,,0.43,fowsr,2013-12-07 16:10:00,
2013-12-07 11:15:00,38.7,32.4,30.35,North,0,0.0,0.0,71,0.00,,,0.43,fowsr,2013-12-07 16:15:00,
2013-12-07 11:20:00,38.7,32.4,30.36,NW,315,0.0,0.0,71,0.00,,,0.43,fowsr,2013-12-07 16:20:00,
2013-12-07 11:25:00,38.7,32.4,30.35,NE,45,0.0,0.0,71,0.00,,,0.41,fowsr,2013-12-07 16:25:00,
2013-12-07 11:30:00,38.5,32.0,30.36,ENE,67,0.0,0.0,70,0.00,,,0.41,fowsr,2013-12-07 16:30:00,
2013-12-07 11:35:00,38.3,31.8,30.35,NW,315,0.0,0.0,70,0.00,,,0.41,fowsr,2013-12-07 16:35:00,
2013-12-07 11:40:00,37.9,31.5,30.36,East,90,0.0,0.0,70,0.00,,,0.41,fowsr,2013-12-07 16:40:00,
2013-12-07 11:45:00,37.9,31.2,30.35,North,0,0.0,0.0,69,0.00,,,0.41,fowsr,2013-12-07 16:45:00,
2013-12-07 11:50:00,37.9,31.0,30.36,WNW,292,0.0,0.0,68,0.00,,,0.41,fowsr,2013-12-07 16:50:00,
2013-12-07 11:55:00,37.8,31.1,30.36,North,0,0.0,0.0,69,0.00,,,0.41,fowsr,2013-12-07 16:55:00,
2013-12-07 12:00:00,37.6,31.1,30.35,North,0,0.0,0.0,70,0.00,,,0.41,fowsr,2013-12-07 17:00:00,
2013-12-07 12:05:00,37.6,31.1,30.35,North,0,0.0,0.0,70,0.00,,,0.41,fowsr,2013-12-07 17:05:00,
2013-12-07 12:10:00,37.6,30.9,30.36,East,90,0.0,0.0,69,0.00,,,0.41,fowsr,2013-12-07 17:10:00,
2013-12-07 12:15:00,37.6,30.9,30.36,North,0,0.0,0.7,69,0.00,,,0.41,fowsr,2013-12-07 17:15:00,
2013-12-07 12:20:00,37.2,29.5,30.36,North,0,0.0,0.0,65,0.00,,,0.41,fowsr,2013-12-07 17:20:00,
2013-12-07 12:25:00,37.0,29.3,30.36,NE,45,0.0,0.0,65,0.00,,,0.41,fowsr,2013-12-07 17:25:00,
2013-12-07 12:30:00,36.7,29.0,30.36,NE,45,0.0,0.0,65,0.00,,,0.41,fowsr,2013-12-07 17:30:00,
2013-12-07 12:35:00,36.7,29.3,30.36,North,0,0.0,0.0,66,0.00,,,0.41,fowsr,2013-12-07 17:35:00,
2013-12-07 12:45:00,36.5,29.4,30.36,West,270,0.0,0.0,67,0.00,,,0.41,fowsr,2013-12-07 17:45:00,
2013-12-07 12:50:00,36.7,29.5,30.36,NW,315,0.0,0.0,67,0.00,,,0.41,fowsr,2013-12-07 17:50:00,
2013-12-07 12:55:00,36.9,29.7,30.36,NE,45,0.0,0.7,67,0.00,,,0.41,fowsr,2013-12-07 17:55:00,
2013-12-07 13:00:00,37.0,29.6,30.36,West,270,0.0,0.0,66,0.00,,,0.41,fowsr,2013-12-07 18:00:00,
2013-12-07 13:05:00,37.0,29.3,30.36,West,270,0.0,0.7,65,0.00,,,0.40,fowsr,2013-12-07 18:05:00,
2013-12-07 13:10:00,37.0,29.1,30.36,West,270,0.0,0.0,64,0.00,,,0.40,fowsr,2013-12-07 18:10:00,
2013-12-07 13:15:00,37.0,29.1,30.36,West,270,0.0,0.0,64,0.00,,,0.40,fowsr,2013-12-07 18:15:00,
2013-12-07 13:20:00,36.9,28.9,30.36,NW,315,0.0,0.0,64,0.00,,,0.40,fowsr,2013-12-07 18:20:00,
2013-12-07 13:30:00,36.9,28.9,30.36,North,0,0.0,0.0,64,0.00,,,0.40,fowsr,2013-12-07 18:30:00,
2013-12-07 13:35:00,36.7,28.5,30.36,North,0,0.0,0.0,63,0.00,,,0.40,fowsr,2013-12-07 18:35:00,
2013-12-07 13:40:00,36.7,28.5,30.36,North,0,0.0,0.0,63,0.00,,,0.39,fowsr,2013-12-07 18:40:00,
2013-12-07 13:45:00,36.7,28.5,30.36,SW,225,0.0,0.0,63,0.00,,,0.39,fowsr,2013-12-07 18:45:00,
2013-12-07 13:50:00,36.7,28.5,30.36,West,270,0.0,0.0,63,0.00,,,0.39,fowsr,2013-12-07 18:50:00,
2013-12-07 13:55:00,36.9,28.9,30.37,North,0,0.0,0.0,64,0.00,,,0.39,fowsr,2013-12-07 18:55:00,
2013-12-07 14:00:00,36.9,28.9,30.36,SW,225,0.0,0.0,64,0.00,,,0.39,fowsr,2013-12-07 19:00:00,
2013-12-07 14:05:00,36.9,28.9,30.36,NW,315,0.0,0.0,64,0.00,,,0.39,fowsr,2013-12-07 19:05:00,
2013-12-07 14:10:00,37.0,29.1,30.36,East,90,0.0,0.7,64,0.00,,,0.39,fowsr,2013-12-07 19:10:00,
2013-12-07 14:15:00,37.0,29.1,30.36,West,270,0.0,0.0,64,0.00,,,0.39,fowsr,2013-12-07 19:15:00,
2013-12-07 14:20:00,37.0,29.1,30.36,North,0,0.0,1.6,64,0.00,,,0.39,fowsr,2013-12-07 19:20:00,
2013-12-07 14:25:00,36.9,28.9,30.36,West,270,0.0,0.0,64,0.00,,,0.39,fowsr,2013-12-07 19:25:00,
2013-12-07 14:30:00,36.9,28.9,30.36,NE,45,0.0,0.0,64,0.00,,,0.39,fowsr,2013-12-07 19:30:00,
2013-12-07 14:35:00,36.9,28.9,30.36,NW,315,0.0,0.0,64,0.00,,,0.39,fowsr,2013-12-07 19:35:00,
2013-12-07 14:40:00,36.9,28.9,30.37,NE,45,0.0,0.0,64,0.00,,,0.39,fowsr,2013-12-07 19:40:00,
2013-12-07 14:45:00,37.0,29.1,30.37,West,270,0.0,0.0,64,0.00,,,0.39,fowsr,2013-12-07 19:45:00,
2013-12-07 14:50:00,37.0,29.1,30.38,North,0,0.0,0.0,64,0.00,,,0.39,fowsr,2013-12-07 19:50:00,
2013-12-07 14:55:00,37.0,29.1,30.37,SW,225,0.0,0.0,64,0.00,,,0.39,fowsr,2013-12-07 19:55:00,
2013-12-07 15:00:00,37.0,29.1,30.38,SW,225,1.6,3.1,64,0.00,,,0.39,fowsr,2013-12-07 20:00:00,
2013-12-07 15:05:00,36.9,28.9,30.38,NW,315,0.0,0.7,64,0.00,,,0.39,fowsr,2013-12-07 20:05:00,
2013-12-07 15:10:00,36.7,28.7,30.38,North,0,0.0,0.7,64,0.00,,,0.39,fowsr,2013-12-07 20:10:00,
2013-12-07 15:15:00,36.5,28.6,30.38,West,270,0.0,2.2,64,0.00,,,0.39,fowsr,2013-12-07 20:15:00,
2013-12-07 15:20:00,36.3,28.4,30.38,NE,45,1.6,3.1,64,0.00,,,0.38,fowsr,2013-12-07 20:20:00,
2013-12-07 15:25:00,36.0,28.3,30.38,East,90,0.0,0.0,65,0.00,,,0.38,fowsr,2013-12-07 20:25:00,
2013-12-07 15:30:00,35.8,28.2,30.38,ESE,112,0.0,0.0,65,0.00,,,0.38,fowsr,2013-12-07 20:30:00,
2013-12-07 15:35:00,35.8,28.2,30.38,ENE,67,0.0,0.0,65,0.00,,,0.38,fowsr,2013-12-07 20:35:00,
2013-12-07 15:40:00,35.6,28.0,30.39,SW,225,0.0,0.0,65,0.00,,,0.38,fowsr,2013-12-07 20:40:00,
2013-12-07 15:50:00,35.6,28.2,30.39,NE,45,0.0,0.0,66,0.00,,,0.38,fowsr,2013-12-07 20:50:00,
2013-12-07 15:55:00,35.4,28.3,30.39,NE,45,0.0,0.0,67,0.00,,,0.37,fowsr,2013-12-07 20:55:00,
2013-12-07 16:00:00,35.2,28.2,30.39,NE,45,0.0,0.0,67,0.00,,,0.37,fowsr,2013-12-07 21:00:00,
2013-12-07 16:10:00,34.9,27.8,30.40,NW,315,0.0,0.0,67,0.00,,,0.37,fowsr,2013-12-07 21:10:00,
2013-12-07 16:15:00,34.7,27.6,30.40,North,0,0.0,0.0,67,0.00,,,0.37,fowsr,2013-12-07 21:15:00,
2013-12-07 16:20:00,34.5,27.7,30.40,North,0,0.0,0.0,68,0.00,,,0.37,fowsr,2013-12-07 21:20:00,
2013-12-07 16:25:00,34.3,27.6,30.40,South,180,0.0,0.0,68,0.00,,,0.37,fowsr,2013-12-07 21:25:00,
2013-12-07 16:30:00,34.2,27.6,30.40,North,0,0.0,0.0,69,0.00,,,0.37,fowsr,2013-12-07 21:30:00,
2013-12-07 16:35:00,34.0,27.7,30.41,South,180,0.0,0.0,70,0.00,,,0.37,fowsr,2013-12-07 21:35:00,
2013-12-07 16:40:00,33.6,27.6,30.41,NE,45,0.0,0.0,71,0.00,,,0.37,fowsr,2013-12-07 21:40:00,
2013-12-07 16:45:00,33.4,27.4,30.41,SE,135,0.0,0.0,71,0.00,,,0.37,fowsr,2013-12-07 21:45:00,
2013-12-07 16:50:00,33.3,27.5,30.41,South,180,0.0,0.0,72,0.00,,,0.37,fowsr,2013-12-07 21:50:00,
2013-12-07 16:55:00,33.1,27.3,30.42,South,180,0.0,0.0,72,0.00,,,0.37,fowsr,2013-12-07 21:55:00,
2013-12-07 17:00:00,32.9,27.2,30.42,South,180,0.0,0.0,72,0.00,,,0.37,fowsr,2013-12-07 22:00:00,
2013-12-07 17:05:00,32.7,27.2,30.42,East,90,0.0,0.0,73,0.00,,,0.37,fowsr,2013-12-07 22:05:00,
2013-12-07 17:10:00,32.5,27.1,30.42,SE,135,0.0,0.0,73,0.00,,,0.37,fowsr,2013-12-07 22:10:00,
2013-12-07 17:15:00,32.4,26.9,30.42,SE,135,0.0,0.0,73,0.00,,,0.35,fowsr,2013-12-07 22:15:00,
2013-12-07 17:20:00,32.2,26.7,30.42,SE,135,0.0,0.0,73,0.00,,,0.35,fowsr,2013-12-07 22:20:00,
2013-12-07 17:25:00,32.0,26.5,30.43,NW,315,0.7,3.1,73,0.00,,,0.34,fowsr,2013-12-07 22:25:00,
2013-12-07 17:30:00,32.0,26.5,30.43,NE,45,0.0,0.0,73,0.00,,,0.34,fowsr,2013-12-07 22:30:00,
2013-12-07 17:35:00,31.8,26.8,30.43,North,0,0.0,0.0,75,0.00,,,0.34,fowsr,2013-12-07 22:35:00,
2013-12-07 17:40:00,31.8,26.8,30.43,North,0,0.0,1.6,75,0.00,,,0.34,fowsr,2013-12-07 22:40:00,
2013-12-07 17:45:00,31.6,26.7,30.44,East,90,0.0,0.0,75,0.00,,,0.34,fowsr,2013-12-07 22:45:00,
2013-12-07 17:50:00,31.6,26.7,30.44,East,90,0.0,0.0,75,0.00,,,0.34,fowsr,2013-12-07 22:50:00,
2013-12-07 17:55:00,31.5,26.2,30.44,NE,45,0.0,1.6,74,0.00,,,0.34,fowsr,2013-12-07 22:55:00,
2013-12-07 18:00:00,31.5,26.2,30.44,NW,315,0.0,0.0,74,0.00,,,0.34,fowsr,2013-12-07 23:00:00,
2013-12-07 18:05:00,31.6,26.4,30.45,East,90,0.0,0.0,74,0.00,,,0.34,fowsr,2013-12-07 23:05:00,
2013-12-07 18:10:00,31.6,26.4,30.45,NW,315,0.0,0.0,74,0.00,,,0.34,fowsr,2013-12-07 23:10:00,
2013-12-07 18:15:00,31.6,26.4,30.45,North,0,0.0,0.0,74,0.00,,,0.34,fowsr,2013-12-07 23:15:00,
2013-12-07 18:20:00,31.5,26.2,30.45,NE,45,0.0,0.0,74,0.00,,,0.34,fowsr,2013-12-07 23:20:00,
2013-12-07 18:25:00,31.5,26.2,30.45,East,90,0.0,0.0,74,0.00,,,0.34,fowsr,2013-12-07 23:25:00,
2013-12-07 18:30:00,31.3,26.1,30.46,NE,45,0.0,0.0,74,0.00,,,0.34,fowsr,2013-12-07 23:30:00,
2013-12-07 18:35:00,31.1,25.9,30.46,North,0,0.0,0.0,74,0.00,,,0.33,fowsr,2013-12-07 23:35:00,
2013-12-07 18:40:00,30.9,25.7,30.46,North,0,0.0,0.0,74,0.00,,,0.32,fowsr,2013-12-07 23:40:00,
2013-12-07 18:45:00,30.7,25.6,30.47,North,0,0.0,0.0,74,0.00,,,0.32,fowsr,2013-12-07 23:45:00,
2013-12-07 18:50:00,30.6,25.4,30.46,NE,45,0.0,0.0,74,0.00,,,0.32,fowsr,2013-12-07 23:50:00,
2013-12-07 18:55:00,30.6,25.4,30.47,North,0,0.0,0.0,74,0.00,,,0.32,fowsr,2013-12-07 23:55:00,
2013-12-07 19:00:00,30.6,25.4,30.47,North,0,0.0,0.0,74,0.00,,,0.32,fowsr,2013-12-08 00:00:00,
2013-12-07 19:05:00,30.6,25.4,30.47,North,0,0.0,0.0,74,0.00,,,0.32,fowsr,2013-12-08 00:05:00,
2013-12-07 19:10:00,30.6,25.4,30.47,North,0,0.0,0.0,74,0.00,,,0.32,fowsr,2013-12-08 00:10:00,
2013-12-07 19:15:00,30.6,25.4,30.48,South,180,0.0,0.0,74,0.00,,,0.32,fowsr,2013-12-08 00:15:00,
2013-12-07 19:20:00,30.4,25.2,30.48,South,180,0.0,0.0,74,0.00,,,0.32,fowsr,2013-12-08 00:20:00,
2013-12-07 19:25:00,30.2,25.0,30.48,East,90,0.0,0.0,74,0.00,,,0.31,fowsr,2013-12-08 00:25:00,
2013-12-07 19:30:00,30.0,25.1,30.48,East,90,0.0,0.0,75,0.00,,,0.31,fowsr,2013-12-08 00:30:00,
2013-12-07 19:35:00,29.8,24.9,30.48,East,90,0.0,0.0,75,0.00,,,0.31,fowsr,2013-12-08 00:35:00,
2013-12-07 19:40:00,29.7,25.0,30.48,SE,135,0.0,0.0,76,0.00,,,0.31,fowsr,2013-12-08 00:40:00,
2013-12-07 19:50:00,29.3,24.6,30.49,SE,135,0.0,0.0,76,0.00,,,0.29,fowsr,2013-12-08 00:50:00,
2013-12-07 19:55:00,29.3,24.6,30.49,South,180,0.0,0.0,76,0.00,,,0.29,fowsr,2013-12-08 00:55:00,
2013-12-07 20:00:00,29.3,24.8,30.50,South,180,0.0,0.0,77,0.00,,,0.29,fowsr,2013-12-08 01:00:00,
2013-12-07 20:05:00,29.1,24.7,30.50,South,180,0.0,0.0,77,0.00,,,0.29,fowsr,2013-12-08 01:05:00,
2013-12-07 20:10:00,29.1,24.7,30.50,South,180,0.0,0.0,77,0.00,,,0.27,fowsr,2013-12-08 01:10:00,
2013-12-07 20:15:00,28.9,24.5,30.50,South,180,0.0,0.0,77,0.00,,,0.27,fowsr,2013-12-08 01:15:00,
2013-12-07 20:20:00,28.9,24.5,30.51,NW,315,0.0,0.0,77,0.00,,,0.27,fowsr,2013-12-08 01:20:00,
2013-12-07 20:25:00,28.9,24.5,30.50,North,0,0.0,0.0,77,0.00,,,0.27,fowsr,2013-12-08 01:25:00,
2013-12-07 20:30:00,28.9,24.7,30.50,South,180,0.0,0.0,78,0.00,,,0.25,fowsr,2013-12-08 01:30:00,
2013-12-07 20:35:00,28.8,24.5,30.50,South,180,0.0,0.0,78,0.00,,,0.25,fowsr,2013-12-08 01:35:00,
2013-12-07 20:40:00,28.8,24.5,30.50,South,180,0.0,0.0,78,0.00,,,0.25,fowsr,2013-12-08 01:40:00,
2013-12-07 20:45:00,28.6,24.4,30.50,South,180,0.0,0.0,78,0.00,,,0.25,fowsr,2013-12-08 01:45:00,
2013-12-07 20:50:00,28.6,24.4,30.50,South,180,0.0,0.0,78,0.00,,,0.24,fowsr,2013-12-08 01:50:00,
2013-12-07 20:55:00,28.6,24.4,30.50,South,180,0.0,0.0,78,0.00,,,0.24,fowsr,2013-12-08 01:55:00,
2013-12-07 21:00:00,28.6,24.4,30.50,North,0,0.0,0.0,78,0.00,,,0.22,fowsr,2013-12-08 02:00:00,
2013-12-07 21:05:00,28.6,24.4,30.50,North,0,0.0,0.0,78,0.00,,,0.22,fowsr,2013-12-08 02:05:00,
2013-12-07 21:10:00,28.4,24.2,30.49,NE,45,0.0,0.0,78,0.00,,,0.22,fowsr,2013-12-08 02:10:00,
2013-12-07 21:15:00,28.4,24.4,30.50,NE,45,0.0,0.0,79,0.00,,,0.22,fowsr,2013-12-08 02:15:00,
2013-12-07 21:20:00,28.2,23.4,30.50,East,90,0.0,0.0,75,0.00,,,0.22,fowsr,2013-12-08 02:20:00,
2013-12-07 21:25:00,28.2,23.4,30.50,SE,135,0.0,0.0,75,0.00,,,0.22,fowsr,2013-12-08 02:25:00,
2013-12-07 21:30:00,28.2,23.4,30.50,East,90,0.0,0.0,75,0.00,,,0.21,fowsr,2013-12-08 02:30:00,
2013-12-07 21:35:00,28.4,24.4,30.50,NE,45,0.0,0.7,79,0.00,,,0.20,fowsr,2013-12-08 02:35:00,
2013-12-07 21:40:00,28.6,24.6,30.50,NE,45,0.0,0.0,79,0.00,,,0.20,fowsr,2013-12-08 02:40:00,
2013-12-07 21:50:00,29.1,24.9,30.51,NE,45,0.0,0.0,78,0.00,,,0.20,fowsr,2013-12-08 02:50:00,
2013-12-07 21:55:00,29.5,25.2,30.51,East,90,0.0,0.0,78,0.00,,,0.20,fowsr,2013-12-08 02:55:00,
2013-12-07 22:00:00,29.7,25.2,30.52,East,90,0.0,0.0,77,0.00,,,0.20,fowsr,2013-12-08 03:00:00,
2013-12-07 22:05:00,29.5,25.0,30.51,East,90,0.0,0.0,77,0.00,,,0.19,fowsr,2013-12-08 03:05:00,
2013-12-07 22:10:00,29.3,24.8,30.51,East,90,0.0,0.0,77,0.00,,,0.18,fowsr,2013-12-08 03:10:00,
2013-12-07 22:15:00,29.1,24.7,30.51,NE,45,0.0,0.0,77,0.00,,,0.18,fowsr,2013-12-08 03:15:00,
2013-12-07 22:20:00,28.9,24.5,30.51,North,0,0.0,0.0,77,0.00,,,0.18,fowsr,2013-12-08 03:20:00,
2013-12-07 22:25:00,28.9,24.3,30.51,West,270,0.0,0.0,76,0.00,,,0.18,fowsr,2013-12-08 03:25:00,
2013-12-07 22:30:00,29.1,24.4,30.51,NE,45,0.0,0.0,76,0.00,,,0.18,fowsr,2013-12-08 03:30:00,
2013-12-07 22:35:00,29.1,24.4,30.51,North,0,0.0,0.0,76,0.00,,,0.18,fowsr,2013-12-08 03:35:00,
2013-12-07 22:45:00,29.1,24.2,30.52,SE,135,0.0,0.0,75,0.00,,,0.17,fowsr,2013-12-08 03:45:00,
2013-12-07 22:50:00,28.9,24.0,30.53,NW,315,0.0,0.7,75,0.00,,,0.15,fowsr,2013-12-08 03:50:00,
2013-12-07 22:55:00,28.8,23.9,30.53,West,270,0.0,0.0,75,0.00,,,0.15,fowsr,2013-12-08 03:55:00,
2013-12-07 23:00:00,28.8,23.9,30.53,NW,315,0.0,0.0,75,0.00,,,0.14,fowsr,2013-12-08 04:00:00,
2013-12-07 23:05:00,28.8,23.9,30.53,NW,315,0.0,0.0,75,0.00,,,0.14,fowsr,2013-12-08 04:05:00,
2013-12-07 23:10:00,29.1,24.2,30.53,NE,45,0.0,0.0,75,0.00,,,0.14,fowsr,2013-12-08 04:10:00,
2013-12-07 23:15:00,29.3,24.2,30.52,North,0,0.0,0.0,74,0.00,,,0.13,fowsr,2013-12-08 04:15:00,
2013-12-07 23:20:00,29.5,23.9,30.53,NNW,337,0.0,0.0,72,0.00,,,0.12,fowsr,2013-12-08 04:20:00,
2013-12-07 23:25:00,29.7,23.8,30.52,NW,315,0.0,0.0,71,0.00,,,0.11,fowsr,2013-12-08 04:25:00,
2013-12-07 23:30:00,29.5,23.7,30.53,NE,45,0.0,0.0,71,0.00,,,0.11,fowsr,2013-12-08 04:30:00,
2013-12-07 23:35:00,29.5,23.7,30.53,NE,45,0.0,0.0,71,0.00,,,0.09,fowsr,2013-12-08 04:35:00,
2013-12-07 23:40:00,29.3,23.5,30.53,NE,45,0.0,0.0,71,0.00,,,0.09,fowsr,2013-12-08 04:40:00,
2013-12-07 23:45:00,29.3,23.2,30.53,NNW,337,0.0,0.0,70,0.00,,,0.09,fowsr,2013-12-08 04:45:00,
2013-12-07 23:50:00,29.1,23.1,30.52,North,0,0.0,0.0,70,0.00,,,0.08,fowsr,2013-12-08 04:50:00,
2013-12-07 23:55:00,29.1,23.1,30.53,NE,45,0.0,0.0,70,0.00,,,0.08,fowsr,2013-12-08 04:55:00,